createdAt,value
2023-04-25T00:00:22.637Z,64.34
2023-04-25T00:01:22.655Z,64.31
2023-04-25T00:02:22.784Z,64.44
2023-04-25T00:03:23.141Z,64.46
2023-04-25T00:04:23.380Z,64.95
2023-04-25T00:05:21.939Z,65.07
2023-04-25T00:06:22.739Z,64.84
2023-04-25T00:07:22.784Z,65.47
2023-04-25T00:08:22.814Z,65.43
2023-04-25T00:09:22.854Z,65.17
2023-04-25T00:10:22.893Z,65.28
2023-04-25T00:11:22.929Z,65.61
2023-04-25T00:12:22.962Z,65.39
2023-04-25T00:13:23.143Z,65.31
2023-04-25T00:14:23.061Z,64.98
2023-04-25T00:15:23.056Z,64.62
2023-04-25T00:16:23.166Z,64.51
2023-04-25T00:17:23.178Z,64.48
2023-04-25T00:18:23.131Z,65.56
2023-04-25T00:19:23.180Z,65.65
2023-04-25T00:20:23.190Z,65.59
2023-04-25T00:21:23.227Z,66.40
2023-04-25T00:22:23.267Z,66.12
2023-04-25T00:23:23.287Z,66.05
2023-04-25T00:24:23.346Z,66.14
2023-04-25T00:25:23.374Z,66.50
2023-04-25T00:26:23.402Z,66.40
2023-04-25T00:27:23.440Z,67.56
2023-04-25T00:28:23.492Z,66.60
2023-04-25T00:29:23.507Z,66.58
2023-04-25T00:30:23.596Z,66.54
2023-04-25T00:31:23.621Z,66.07
2023-04-25T00:32:23.603Z,66.11
2023-04-25T00:33:23.619Z,66.08
2023-04-25T00:34:23.655Z,66.62
2023-04-25T00:35:23.692Z,66.73
2023-04-25T00:36:23.712Z,66.55
2023-04-25T00:37:23.785Z,66.51
2023-04-25T00:38:23.766Z,66.75
2023-04-25T00:39:23.800Z,66.84
2023-04-25T00:40:23.825Z,66.72
2023-04-25T00:41:23.855Z,66.72
2023-04-25T00:42:23.866Z,66.58
2023-04-25T00:43:23.884Z,66.55
2023-04-25T00:44:23.909Z,66.46
2023-04-25T00:45:23.922Z,66.12
2023-04-25T00:46:24.908Z,65.98
2023-04-25T00:47:23.985Z,65.95
2023-04-25T00:48:24.001Z,65.56
2023-04-25T00:49:24.076Z,65.32
2023-04-25T00:50:24.159Z,65.25
2023-04-25T00:51:24.226Z,64.98
2023-04-25T00:52:24.282Z,64.71
2023-04-25T00:53:24.314Z,64.49
2023-04-25T00:54:24.346Z,64.61
2023-04-25T00:55:24.363Z,65.99
2023-04-25T00:56:24.413Z,65.10
2023-04-25T00:57:24.408Z,64.90
2023-04-25T00:58:24.462Z,64.72
2023-04-25T00:59:24.508Z,64.80
2023-04-25T01:00:24.582Z,65.11
2023-04-25T01:01:24.752Z,65.14
2023-04-25T01:02:24.802Z,64.91
2023-04-25T01:03:24.896Z,65.04
2023-04-25T01:04:24.770Z,64.85
2023-04-25T01:05:24.770Z,64.68
2023-04-25T01:06:24.797Z,65.32
2023-04-25T01:07:24.896Z,65.41
2023-04-25T01:08:24.947Z,65.81
2023-04-25T01:09:25.021Z,66.13
2023-04-25T01:10:25.075Z,66.33
2023-04-25T01:11:25.103Z,66.01
2023-04-25T01:12:25.121Z,66.27
2023-04-25T01:13:25.164Z,66.26
2023-04-25T01:14:25.205Z,66.28
2023-04-25T01:15:25.255Z,66.30
2023-04-25T01:16:25.370Z,66.17
2023-04-25T01:17:25.424Z,65.63
2023-04-25T01:18:25.506Z,65.41
2023-04-25T01:19:25.503Z,65.43
2023-04-25T01:20:25.493Z,65.29
2023-04-25T01:21:25.556Z,65.17
2023-04-25T01:22:25.589Z,65.03
2023-04-25T01:23:25.636Z,65.02
2023-04-25T01:24:25.660Z,65.06
2023-04-25T01:25:25.706Z,64.96
2023-04-25T01:26:25.779Z,64.99
2023-04-25T01:27:25.835Z,64.95
2023-04-25T01:28:25.885Z,65.03
2023-04-25T01:29:25.957Z,65.03
2023-04-25T01:30:26.013Z,65.20
2023-04-25T01:31:26.123Z,65.06
2023-04-25T01:32:26.120Z,64.88
2023-04-25T01:33:26.170Z,64.59
2023-04-25T01:34:26.235Z,64.44
2023-04-25T01:35:26.260Z,64.22
2023-04-25T01:36:26.284Z,64.07
2023-04-25T01:37:26.279Z,63.93
2023-04-25T01:38:26.314Z,63.96
2023-04-25T01:39:26.313Z,63.91
2023-04-25T01:40:26.332Z,63.81
2023-04-25T01:41:26.329Z,63.69
2023-04-25T01:42:26.345Z,63.74
2023-04-25T01:43:26.346Z,63.57
2023-04-25T01:44:26.350Z,63.36
2023-04-25T01:45:26.363Z,63.41
2023-04-25T01:46:26.480Z,63.44
2023-04-25T01:47:26.463Z,62.96
2023-04-25T01:48:26.401Z,62.86
2023-04-25T01:49:26.412Z,62.97
2023-04-25T01:50:26.432Z,64.36
2023-04-25T01:51:26.435Z,63.48
2023-04-25T01:52:26.420Z,63.15
2023-04-25T01:53:26.408Z,63.02
2023-04-25T01:54:26.437Z,62.95
2023-04-25T01:55:26.441Z,62.95
2023-04-25T01:56:26.426Z,63.56
2023-04-25T01:57:26.439Z,63.87
2023-04-25T01:58:26.473Z,63.56
2023-04-25T01:59:26.524Z,63.77
2023-04-25T02:00:26.588Z,63.94
2023-04-25T02:01:26.674Z,64.34
2023-04-25T02:02:26.834Z,63.66
2023-04-25T02:03:26.805Z,64.23
2023-04-25T02:04:26.889Z,63.71
2023-04-25T02:05:26.854Z,63.57
2023-04-25T02:06:26.931Z,63.22
2023-04-25T02:07:26.999Z,63.05
2023-04-25T02:08:27.063Z,62.99
2023-04-25T02:09:27.089Z,63.34
2023-04-25T02:10:27.111Z,63.31
2023-04-25T02:11:27.151Z,63.45
2023-04-25T02:12:27.228Z,63.56
2023-04-25T02:13:27.246Z,63.50
2023-04-25T02:14:27.306Z,63.58
2023-04-25T02:15:27.385Z,63.44
2023-04-25T02:16:27.515Z,62.98
2023-04-25T02:17:27.497Z,62.64
2023-04-25T02:18:27.559Z,63.76
2023-04-25T02:19:27.656Z,65.07
2023-04-25T02:20:27.673Z,65.43
2023-04-25T02:21:27.752Z,65.12
2023-04-25T02:22:27.857Z,65.93
2023-04-25T02:23:27.886Z,65.86
2023-04-25T02:24:27.930Z,66.09
2023-04-25T02:25:27.984Z,66.10
2023-04-25T02:26:28.023Z,65.82
2023-04-25T02:27:28.038Z,65.78
2023-04-25T02:28:28.059Z,65.84
2023-04-25T02:29:28.080Z,65.99
2023-04-25T02:30:28.131Z,66.23
2023-04-25T02:31:28.209Z,66.22
2023-04-25T02:32:28.323Z,66.59
2023-04-25T02:33:28.319Z,67.02
2023-04-25T02:34:28.388Z,66.90
2023-04-25T02:35:28.442Z,66.80
2023-04-25T02:36:28.501Z,66.51
2023-04-25T02:37:28.555Z,65.90
2023-04-25T02:38:28.632Z,65.99
2023-04-25T02:39:28.652Z,65.53
2023-04-25T02:40:28.707Z,65.69
2023-04-25T02:41:28.755Z,65.48
2023-04-25T02:42:28.810Z,65.55
2023-04-25T02:43:28.889Z,65.78
2023-04-25T02:44:29.001Z,65.75
2023-04-25T02:45:29.039Z,61.50
2023-04-25T02:46:38.857Z,61.26
2023-04-25T02:47:29.263Z,59.58
2023-04-25T02:48:29.141Z,60.30
2023-04-25T02:49:29.155Z,61.07
2023-04-25T02:50:29.161Z,62.81
2023-04-25T02:51:29.181Z,62.08
2023-04-25T02:52:29.205Z,62.45
2023-04-25T02:53:29.243Z,63.71
2023-04-25T02:54:29.349Z,63.04
2023-04-25T02:55:29.276Z,63.31
2023-04-25T02:56:29.321Z,62.90
2023-04-25T02:57:29.326Z,65.35
2023-04-25T02:58:29.357Z,65.88
2023-04-25T02:59:29.387Z,66.76
2023-04-25T03:00:29.459Z,67.00
2023-04-25T03:01:29.445Z,66.73
2023-04-25T03:02:29.551Z,66.44
2023-04-25T03:03:29.520Z,65.54
2023-04-25T03:04:29.564Z,65.07
2023-04-25T03:05:29.498Z,64.38
2023-04-25T03:06:29.494Z,64.00
2023-04-25T03:07:29.494Z,63.64
2023-04-25T03:08:29.497Z,63.45
2023-04-25T03:09:29.518Z,63.34
2023-04-25T03:10:29.541Z,63.55
2023-04-25T03:11:29.529Z,63.66
2023-04-25T03:12:29.531Z,63.95
2023-04-25T03:13:29.529Z,63.65
2023-04-25T03:14:29.533Z,64.32
2023-04-25T03:15:29.549Z,65.16
2023-04-25T03:16:29.595Z,64.33
2023-04-25T03:17:29.588Z,64.27
2023-04-25T03:18:29.561Z,63.78
2023-04-25T03:19:29.608Z,63.89
2023-04-25T03:20:29.676Z,64.76
2023-04-25T03:21:29.719Z,64.73
2023-04-25T03:22:29.770Z,64.62
2023-04-25T03:23:29.815Z,64.95
2023-04-25T03:24:29.910Z,64.87
2023-04-25T03:25:29.936Z,64.86
2023-04-25T03:26:29.997Z,64.65
2023-04-25T03:27:30.038Z,64.57
2023-04-25T03:28:30.131Z,64.41
2023-04-25T03:29:30.186Z,64.33
2023-04-25T03:30:30.258Z,64.31
2023-04-25T03:31:30.341Z,64.39
2023-04-25T03:32:30.390Z,64.33
2023-04-25T03:33:30.402Z,64.46
2023-04-25T03:34:30.456Z,64.46
2023-04-25T03:35:30.499Z,64.61
2023-04-25T03:36:30.529Z,64.71
2023-04-25T03:37:30.583Z,64.66
2023-04-25T03:38:30.610Z,64.91
2023-04-25T03:39:30.647Z,64.93
2023-04-25T03:40:30.682Z,64.88
2023-04-25T03:41:30.698Z,64.49
2023-04-25T03:42:30.749Z,64.36
2023-04-25T03:43:30.760Z,64.24
2023-04-25T03:44:30.804Z,63.98
2023-04-25T03:45:30.849Z,64.16
2023-04-25T03:46:31.048Z,64.07
2023-04-25T03:47:30.948Z,64.03
2023-04-25T03:48:30.956Z,63.94
2023-04-25T03:49:31.004Z,63.75
2023-04-25T03:50:31.026Z,63.87
2023-04-25T03:51:31.069Z,64.13
2023-04-25T03:52:31.090Z,64.34
2023-04-25T03:53:31.122Z,64.42
2023-04-25T03:54:31.159Z,64.80
2023-04-25T03:55:31.204Z,62.16
2023-04-25T03:56:31.260Z,61.92
2023-04-25T03:57:31.312Z,62.28
2023-04-25T03:58:31.397Z,62.28
2023-04-25T03:59:31.419Z,62.59
2023-04-25T04:00:31.477Z,62.79
2023-04-25T04:01:31.523Z,64.08
2023-04-25T04:02:31.636Z,64.24
2023-04-25T04:03:31.690Z,64.81
2023-04-25T04:04:31.878Z,66.27
2023-04-25T04:05:31.708Z,66.11
2023-04-25T04:06:31.701Z,66.20
2023-04-25T04:07:31.774Z,65.20
2023-04-25T04:08:31.867Z,66.24
2023-04-25T04:09:31.905Z,65.00
2023-04-25T04:10:31.976Z,64.44
2023-04-25T04:11:32.064Z,64.77
2023-04-25T04:12:32.127Z,65.18
2023-04-25T04:13:32.189Z,65.00
2023-04-25T04:14:32.283Z,65.32
2023-04-25T04:15:32.410Z,64.99
2023-04-25T04:16:34.425Z,64.73
2023-04-25T04:17:32.415Z,64.44
2023-04-25T04:18:32.404Z,64.29
2023-04-25T04:19:32.463Z,64.19
2023-04-25T04:20:32.443Z,64.43
2023-04-25T04:21:32.417Z,64.25
2023-04-25T04:22:32.432Z,63.78
2023-04-25T04:23:32.400Z,63.68
2023-04-25T04:24:32.410Z,63.53
2023-04-25T04:25:32.398Z,63.39
2023-04-25T04:26:32.390Z,63.35
2023-04-25T04:27:32.379Z,63.69
2023-04-25T04:28:32.389Z,63.58
2023-04-25T04:29:32.372Z,64.00
2023-04-25T04:30:32.389Z,63.44
2023-04-25T04:31:32.396Z,63.31
2023-04-25T04:32:32.423Z,62.97
2023-04-25T04:33:32.352Z,62.66
2023-04-25T04:34:32.393Z,62.48
2023-04-25T04:35:32.361Z,62.33
2023-04-25T04:36:32.338Z,62.20
2023-04-25T04:37:32.351Z,62.12
2023-04-25T04:38:32.336Z,62.09
2023-04-25T04:39:32.343Z,62.07
2023-04-25T04:40:32.357Z,62.18
2023-04-25T04:41:32.369Z,62.24
2023-04-25T04:42:32.390Z,62.51
2023-04-25T04:43:32.362Z,62.91
2023-04-25T04:44:32.370Z,62.59
2023-04-25T04:45:32.376Z,62.95
2023-04-25T04:46:32.485Z,64.66
2023-04-25T04:47:32.512Z,64.47
2023-04-25T04:48:32.535Z,63.92
2023-04-25T04:49:32.558Z,63.58
2023-04-25T04:50:32.608Z,63.53
2023-04-25T04:51:32.658Z,63.38
2023-04-25T04:52:32.710Z,62.96
2023-04-25T04:53:32.755Z,62.78
2023-04-25T04:54:32.796Z,62.70
2023-04-25T04:55:32.851Z,62.66
2023-04-25T04:56:32.871Z,63.04
2023-04-25T04:57:32.939Z,63.04
2023-04-25T04:58:32.943Z,62.86
2023-04-25T04:59:32.976Z,62.66
2023-04-25T05:00:33.045Z,62.59
2023-04-25T05:01:33.053Z,62.62
2023-04-25T05:02:33.281Z,62.62
2023-04-25T05:03:33.247Z,62.51
2023-04-25T05:04:33.193Z,62.54
2023-04-25T05:05:33.102Z,62.52
2023-04-25T05:06:33.129Z,62.50
2023-04-25T05:07:33.158Z,62.76
2023-04-25T05:08:33.151Z,62.84
2023-04-25T05:09:33.160Z,62.57
2023-04-25T05:10:33.181Z,62.65
2023-04-25T05:11:33.197Z,62.60
2023-04-25T05:12:34.124Z,62.53
2023-04-25T05:13:33.191Z,62.47
2023-04-25T05:14:33.182Z,62.27
2023-04-25T05:15:33.203Z,62.78
2023-04-25T05:16:33.265Z,62.29
2023-04-25T05:17:33.233Z,62.16
2023-04-25T05:18:33.203Z,62.36
2023-04-25T05:19:33.193Z,62.21
2023-04-25T05:20:33.220Z,63.49
2023-04-25T05:21:33.191Z,62.40
2023-04-25T05:22:33.461Z,61.84
2023-04-25T05:23:33.521Z,61.68
2023-04-25T05:24:33.189Z,61.76
2023-04-25T05:25:33.197Z,61.64
2023-04-25T05:26:33.186Z,62.07
2023-04-25T05:27:33.208Z,62.25
2023-04-25T05:28:33.177Z,61.94
2023-04-25T05:29:33.174Z,61.82
2023-04-25T05:30:33.170Z,62.22
2023-04-25T05:31:33.216Z,62.03
2023-04-25T05:32:33.179Z,62.00
2023-04-25T05:33:33.191Z,62.60
2023-04-25T05:34:33.281Z,62.14
2023-04-25T05:35:33.264Z,61.98
2023-04-25T05:36:33.145Z,61.62
2023-04-25T05:37:33.456Z,62.13
2023-04-25T05:38:34.842Z,61.58
2023-04-25T05:39:33.131Z,61.09
2023-04-25T05:40:33.082Z,60.97
2023-04-25T05:41:33.093Z,61.33
2023-04-25T05:42:33.506Z,61.70
2023-04-25T05:43:33.050Z,61.59
2023-04-25T05:44:33.068Z,61.82
2023-04-25T05:45:33.039Z,61.33
2023-04-25T05:46:33.038Z,61.26
2023-04-25T05:47:33.542Z,61.50
2023-04-25T05:48:32.996Z,61.31
2023-04-25T05:49:32.985Z,61.15
2023-04-25T05:50:32.983Z,60.82
2023-04-25T05:51:32.945Z,60.83
2023-04-25T05:52:32.955Z,60.75
2023-04-25T05:53:32.900Z,60.72
2023-04-25T05:54:36.079Z,60.34
2023-04-25T05:55:32.959Z,60.38
2023-04-25T05:56:32.851Z,60.30
2023-04-25T05:57:32.814Z,60.01
2023-04-25T05:58:33.068Z,59.56
2023-04-25T05:59:32.806Z,59.82
2023-04-25T06:00:33.547Z,60.07
2023-04-25T06:01:32.728Z,60.03
2023-04-25T06:02:32.863Z,59.15
2023-04-25T06:03:33.125Z,59.13
2023-04-25T06:04:36.111Z,58.63
2023-04-25T06:05:40.071Z,58.48
2023-04-25T06:06:32.598Z,58.57
2023-04-25T06:07:32.991Z,58.39
2023-04-25T06:08:32.998Z,57.99
2023-04-25T06:09:32.531Z,57.22
2023-04-25T06:10:35.678Z,57.35
2023-04-25T06:11:32.497Z,57.52
2023-04-25T06:12:32.474Z,56.75
2023-04-25T06:13:32.493Z,56.68
2023-04-25T06:14:32.424Z,56.50
2023-04-25T06:15:32.369Z,56.65
2023-04-25T06:16:32.469Z,56.56
2023-04-25T06:17:32.363Z,56.14
2023-04-25T06:18:32.276Z,55.77
2023-04-25T06:19:32.275Z,55.95
2023-04-25T06:20:32.217Z,56.02
2023-04-25T06:21:32.240Z,55.79
2023-04-25T06:22:32.205Z,55.89
2023-04-25T06:23:32.513Z,55.92
2023-04-25T06:24:32.129Z,55.80
2023-04-25T06:25:32.133Z,55.60
2023-04-25T06:26:32.124Z,55.52
2023-04-25T06:27:32.139Z,56.04
2023-04-25T06:28:32.125Z,56.36
2023-04-25T06:29:32.122Z,56.82
2023-04-25T06:30:32.576Z,56.93
2023-04-25T06:31:32.121Z,56.59
2023-04-25T06:32:32.155Z,56.33
2023-04-25T06:33:32.123Z,57.88
2023-04-25T06:34:32.080Z,57.79
2023-04-25T06:35:32.044Z,56.63
2023-04-25T06:36:32.026Z,55.31
2023-04-25T06:37:32.495Z,55.06
2023-04-25T06:38:31.991Z,54.69
2023-04-25T06:39:31.961Z,54.39
2023-04-25T06:40:31.969Z,54.86
2023-04-25T06:41:31.944Z,54.50
2023-04-25T06:42:31.958Z,53.56
2023-04-25T06:43:31.952Z,53.09
2023-04-25T06:44:32.510Z,53.23
2023-04-25T06:45:32.446Z,54.51
2023-04-25T06:46:33.033Z,53.47
2023-04-25T06:47:32.582Z,53.79
2023-04-25T06:48:32.199Z,53.94
2023-04-25T06:49:35.374Z,53.98
2023-04-25T06:50:32.517Z,54.20
2023-04-25T06:51:32.180Z,54.67
2023-04-25T06:52:32.982Z,54.29
2023-04-25T06:53:33.086Z,53.46
2023-04-25T06:54:32.595Z,53.96
2023-04-25T06:55:32.699Z,54.08
2023-04-25T06:56:32.360Z,52.61
2023-04-25T06:57:32.259Z,50.02
2023-04-25T06:58:32.511Z,49.95
2023-04-25T06:59:32.171Z,49.91
2023-04-25T07:00:32.261Z,49.67
2023-04-25T07:01:32.497Z,50.62
2023-04-25T07:02:32.147Z,50.67
2023-04-25T07:03:32.124Z,49.52
2023-04-25T07:04:32.199Z,50.30
2023-04-25T07:05:31.982Z,49.85
2023-04-25T07:06:31.886Z,49.22
2023-04-25T07:07:32.251Z,49.64
2023-04-25T07:08:31.821Z,50.04
2023-04-25T07:09:31.826Z,49.85
2023-04-25T07:10:32.003Z,49.88
2023-04-25T07:11:31.854Z,49.03
2023-04-25T07:12:31.940Z,48.61
2023-04-25T07:13:31.728Z,48.60
2023-04-25T07:14:31.713Z,48.99
2023-04-25T07:15:32.023Z,50.09
2023-04-25T07:16:31.641Z,49.52
2023-04-25T07:17:31.609Z,49.18
2023-04-25T07:18:31.571Z,48.49
2023-04-25T07:19:31.608Z,48.39
2023-04-25T07:20:31.551Z,47.88
2023-04-25T07:21:31.535Z,47.92
2023-04-25T07:22:31.980Z,48.27
2023-04-25T07:23:31.589Z,48.94
2023-04-25T07:24:31.587Z,48.60
2023-04-25T07:25:31.610Z,48.65
2023-04-25T07:26:31.567Z,47.43
2023-04-25T07:27:31.897Z,48.06
2023-04-25T07:28:31.786Z,48.48
2023-04-25T07:29:31.927Z,47.12
2023-04-25T07:30:31.666Z,46.68
2023-04-25T07:31:32.028Z,46.69
2023-04-25T07:32:31.909Z,45.94
2023-04-25T07:33:31.722Z,47.70
2023-04-25T07:34:31.897Z,47.87
2023-04-25T07:35:32.029Z,48.06
2023-04-25T07:36:32.434Z,48.14
2023-04-25T07:37:31.964Z,49.28
2023-04-25T07:38:31.997Z,49.07
2023-04-25T07:39:32.039Z,49.33
2023-04-25T07:40:32.381Z,50.04
2023-04-25T07:41:32.072Z,50.67
2023-04-25T07:42:31.882Z,50.86
2023-04-25T07:43:32.250Z,51.91
2023-04-25T07:44:32.327Z,51.23
2023-04-25T07:45:32.074Z,51.50
2023-04-25T07:46:32.188Z,52.10
2023-04-25T07:47:32.320Z,51.77
2023-04-25T07:48:32.623Z,51.49
2023-04-25T07:49:32.697Z,52.49
2023-04-25T07:50:32.236Z,52.97
2023-04-25T07:51:32.327Z,53.15
2023-04-25T07:52:32.146Z,52.37
2023-04-25T07:53:32.962Z,52.82
2023-04-25T07:54:32.486Z,53.41
2023-04-25T07:55:32.676Z,52.64
2023-04-25T07:56:45.110Z,51.79
2023-04-25T07:57:32.510Z,52.11
2023-04-25T07:58:33.396Z,51.95
2023-04-25T07:59:32.182Z,51.01
2023-04-25T08:00:32.188Z,50.11
2023-04-25T08:01:32.217Z,50.38
2023-04-25T08:02:32.602Z,51.65
2023-04-25T08:03:32.398Z,51.91
2023-04-25T08:04:32.821Z,51.72
2023-04-25T08:05:35.647Z,53.46
2023-04-25T08:06:33.505Z,53.43
2023-04-25T08:07:32.517Z,52.01
2023-04-25T08:08:32.500Z,51.79
2023-04-25T08:09:32.285Z,52.09
2023-04-25T08:10:32.490Z,52.26
2023-04-25T08:11:32.490Z,52.29
2023-04-25T08:12:32.619Z,52.02
2023-04-25T08:13:32.515Z,51.99
2023-04-25T08:14:32.482Z,51.89
2023-04-25T08:15:32.610Z,51.87
2023-04-25T08:16:32.596Z,51.88
2023-04-25T08:17:32.585Z,51.69
2023-04-25T08:18:33.004Z,52.23
2023-04-25T08:19:32.712Z,51.00
2023-04-25T08:20:32.692Z,51.33
2023-04-25T08:21:32.759Z,51.47
2023-04-25T08:22:32.812Z,52.17
2023-04-25T08:23:33.000Z,52.95
2023-04-25T08:24:32.891Z,52.60
2023-04-25T08:25:33.425Z,51.99
2023-04-25T08:26:33.048Z,51.26
2023-04-25T08:27:33.463Z,50.13
2023-04-25T08:28:33.002Z,49.90
2023-04-25T08:29:33.000Z,49.64
2023-04-25T08:30:33.052Z,49.59
2023-04-25T08:31:32.968Z,49.96
2023-04-25T08:32:32.952Z,49.64
2023-04-25T08:33:33.018Z,49.28
2023-04-25T08:34:32.946Z,48.72
2023-04-25T08:35:32.950Z,48.60
2023-04-25T08:36:39.442Z,48.92
2023-04-25T08:37:32.894Z,48.43
2023-04-25T08:38:33.558Z,47.92
2023-04-25T08:39:33.119Z,47.94
2023-04-25T08:40:33.048Z,47.33
2023-04-25T08:41:33.020Z,46.91
2023-04-25T08:42:32.998Z,46.69
2023-04-25T08:43:36.197Z,46.81
2023-04-25T08:44:33.017Z,46.92
2023-04-25T08:45:32.938Z,45.78
2023-04-25T08:46:34.145Z,45.78
2023-04-25T08:47:33.116Z,46.53
2023-04-25T08:48:33.026Z,46.30
2023-04-25T08:49:32.801Z,45.33
2023-04-25T08:50:32.816Z,45.35
2023-04-25T08:51:33.252Z,45.94
2023-04-25T08:52:32.818Z,45.78
2023-04-25T08:53:34.050Z,45.45
2023-04-25T08:54:35.166Z,45.00
2023-04-25T08:55:32.765Z,44.63
2023-04-25T08:56:32.745Z,44.50
2023-04-25T08:57:32.718Z,44.00
2023-04-25T08:58:33.076Z,43.69
2023-04-25T08:59:32.609Z,43.81
2023-04-25T09:00:32.751Z,44.47
2023-04-25T09:01:32.866Z,44.70
2023-04-25T09:02:32.602Z,44.13
2023-04-25T09:03:32.981Z,44.55
2023-04-25T09:04:32.434Z,44.05
2023-04-25T09:05:32.304Z,44.74
2023-04-25T09:06:32.258Z,44.00
2023-04-25T09:07:32.183Z,43.06
2023-04-25T09:08:32.155Z,43.83
2023-04-25T09:09:32.525Z,43.26
2023-04-25T09:10:33.148Z,43.52
2023-04-25T09:11:32.539Z,43.44
2023-04-25T09:12:32.114Z,43.83
2023-04-25T09:13:32.205Z,43.79
2023-04-25T09:14:32.126Z,43.99
2023-04-25T09:15:32.057Z,44.26
2023-04-25T09:16:33.659Z,43.79
2023-04-25T09:17:32.103Z,43.08
2023-04-25T09:18:31.855Z,43.46
2023-04-25T09:19:40.318Z,43.92
2023-04-25T09:20:33.361Z,43.44
2023-04-25T09:21:32.032Z,42.94
2023-04-25T09:22:31.628Z,42.93
2023-04-25T09:23:31.569Z,43.53
2023-04-25T09:24:31.513Z,42.62
2023-04-25T09:25:31.451Z,42.26
2023-04-25T09:26:31.555Z,42.65
2023-04-25T09:27:31.423Z,42.66
2023-04-25T09:28:31.297Z,41.81
2023-04-25T09:29:31.509Z,41.70
2023-04-25T09:30:31.512Z,41.42
2023-04-25T09:31:31.649Z,41.20
2023-04-25T09:32:31.140Z,41.46
2023-04-25T09:33:31.564Z,40.63
2023-04-25T09:34:31.606Z,41.15
2023-04-25T09:35:31.348Z,40.37
2023-04-25T09:36:30.704Z,40.54
2023-04-25T09:37:30.684Z,40.24
2023-04-25T09:38:30.762Z,40.56
2023-04-25T09:39:31.015Z,40.33
2023-04-25T09:40:31.015Z,39.70
2023-04-25T09:41:30.558Z,40.45
2023-04-25T09:42:30.533Z,40.93
2023-04-25T09:43:30.527Z,40.70
2023-04-25T09:44:30.494Z,39.93
2023-04-25T09:45:30.506Z,41.24
2023-04-25T09:46:30.516Z,39.61
2023-04-25T09:47:30.535Z,40.23
2023-04-25T09:48:30.435Z,39.31
2023-04-25T09:49:30.469Z,38.78
2023-04-25T09:50:30.348Z,39.01
2023-04-25T09:51:30.291Z,38.49
2023-04-25T09:52:30.217Z,39.01
2023-04-25T09:53:30.162Z,38.98
2023-04-25T09:54:30.533Z,38.62
2023-04-25T09:55:29.985Z,38.25
2023-04-25T09:56:29.929Z,37.60
2023-04-25T09:57:29.843Z,37.30
2023-04-25T09:58:31.851Z,37.56
2023-04-25T09:59:30.027Z,37.44
2023-04-25T10:00:29.612Z,37.52
2023-04-25T10:01:29.530Z,36.49
2023-04-25T10:02:29.568Z,36.04
2023-04-25T10:03:29.454Z,37.37
2023-04-25T10:04:30.643Z,35.90
2023-04-25T10:05:29.234Z,36.00
2023-04-25T10:06:29.120Z,37.03
2023-04-25T10:07:29.043Z,36.47
2023-04-25T10:08:28.988Z,37.15
2023-04-25T10:09:28.897Z,36.68
2023-04-25T10:10:30.777Z,36.42
2023-04-25T10:11:28.754Z,35.98
2023-04-25T10:12:28.693Z,33.59
2023-04-25T10:13:28.589Z,33.65
2023-04-25T10:14:29.025Z,33.71
2023-04-25T10:15:28.524Z,34.12
2023-04-25T10:16:28.469Z,34.75
2023-04-25T10:17:28.365Z,34.65
2023-04-25T10:18:28.536Z,34.96
2023-04-25T10:19:28.236Z,35.53
2023-04-25T10:20:28.153Z,35.61
2023-04-25T10:21:28.111Z,35.87
2023-04-25T10:22:28.026Z,35.45
2023-04-25T10:23:31.249Z,35.43
2023-04-25T10:24:28.024Z,34.90
2023-04-25T10:25:27.788Z,34.71
2023-04-25T10:27:26.676Z,35.91
2023-04-25T10:28:27.617Z,36.86
2023-04-25T10:29:28.080Z,38.27
2023-04-25T10:30:27.516Z,36.54
2023-04-25T10:31:27.639Z,35.99
2023-04-25T10:32:27.905Z,36.36
2023-04-25T10:33:28.050Z,36.25
2023-04-25T10:34:27.652Z,37.16
2023-04-25T10:35:27.728Z,37.34
2023-04-25T10:36:27.779Z,37.82
2023-04-25T10:37:28.140Z,37.09
2023-04-25T10:38:27.649Z,35.91
2023-04-25T10:39:28.062Z,35.64
2023-04-25T10:40:27.616Z,35.80
2023-04-25T10:41:27.603Z,33.45
2023-04-25T10:42:27.585Z,33.45
2023-04-25T10:43:27.590Z,34.38
2023-04-25T10:44:28.058Z,33.99
2023-04-25T10:45:27.737Z,34.69
2023-04-25T10:46:27.711Z,35.07
2023-04-25T10:47:27.669Z,37.78
2023-04-25T10:48:27.644Z,36.65
2023-04-25T10:49:28.070Z,37.51
2023-04-25T10:50:27.602Z,37.68
2023-04-25T10:52:26.572Z,35.05
2023-04-25T10:53:28.161Z,33.97
2023-04-25T10:54:27.512Z,31.28
2023-04-25T10:55:27.487Z,31.29
2023-04-25T10:56:27.487Z,30.65
2023-04-25T10:57:27.465Z,30.64
2023-04-25T10:58:27.530Z,31.89
2023-04-25T10:59:27.529Z,31.76
2023-04-25T11:00:33.922Z,31.63
2023-04-25T11:01:27.349Z,31.48
2023-04-25T11:02:27.286Z,31.70
2023-04-25T11:03:27.302Z,31.69
2023-04-25T11:04:27.772Z,31.70
2023-04-25T11:05:27.175Z,31.56
2023-04-25T11:07:48.067Z,31.18
2023-04-25T11:08:47.017Z,31.04
2023-04-25T11:09:46.399Z,31.48
2023-04-25T11:10:46.395Z,32.24
2023-04-25T11:11:46.149Z,32.07
2023-04-25T11:12:46.136Z,31.97
2023-04-25T11:13:46.394Z,32.30
2023-04-25T11:14:46.085Z,31.91
2023-04-25T11:15:46.065Z,31.78
2023-04-25T11:16:46.461Z,31.05
2023-04-25T11:17:46.263Z,31.50
2023-04-25T11:18:46.046Z,31.39
2023-04-25T11:19:46.407Z,31.51
2023-04-25T11:20:46.028Z,31.17
2023-04-25T11:21:46.464Z,31.04
2023-04-25T11:22:46.428Z,31.12
2023-04-25T11:23:46.089Z,31.17
2023-04-25T11:24:46.223Z,32.10
2023-04-25T11:25:46.129Z,31.65
2023-04-25T11:26:46.435Z,32.37
2023-04-25T11:27:46.425Z,33.57
2023-04-25T11:28:46.326Z,33.51
2023-04-25T11:29:46.325Z,34.00
2023-04-25T11:30:46.398Z,33.30
2023-04-25T11:31:46.536Z,34.98
2023-04-25T11:32:46.949Z,34.90
2023-04-25T11:33:46.598Z,33.99
2023-04-25T11:34:46.672Z,34.29
2023-04-25T11:35:46.922Z,34.56
2023-04-25T11:36:46.780Z,35.27
2023-04-25T11:37:46.829Z,36.00
2023-04-25T11:38:46.885Z,35.81
2023-04-25T11:39:46.935Z,35.94
2023-04-25T11:40:47.458Z,34.79
2023-04-25T11:41:47.034Z,38.03
2023-04-25T11:42:47.122Z,38.48
2023-04-25T11:43:47.177Z,37.91
2023-04-25T11:44:47.424Z,37.45
2023-04-25T11:45:47.270Z,37.11
2023-04-25T11:46:47.240Z,36.49
2023-04-25T11:47:47.312Z,35.81
2023-04-25T11:48:48.655Z,35.76
2023-04-25T11:49:47.407Z,36.59
2023-04-25T11:50:47.387Z,36.72
2023-04-25T11:51:47.418Z,37.02
2023-04-25T11:52:47.915Z,36.80
2023-04-25T11:53:47.510Z,36.34
2023-04-25T11:54:47.523Z,37.29
2023-04-25T11:55:47.567Z,38.07
2023-04-25T11:56:48.029Z,38.20
2023-04-25T11:57:47.933Z,38.32
2023-04-25T11:58:47.925Z,39.55
2023-04-25T11:59:47.796Z,40.42
2023-04-25T12:00:50.462Z,41.32
2023-04-25T12:01:47.976Z,41.92
2023-04-25T12:02:48.613Z,44.70
2023-04-25T12:03:48.421Z,44.74
2023-04-25T12:04:48.393Z,45.29
2023-04-25T12:05:48.505Z,48.21
2023-04-25T12:06:48.469Z,47.43
2023-04-25T12:07:48.422Z,47.76
2023-04-25T12:08:48.513Z,50.17
2023-04-25T12:09:48.403Z,49.65
2023-04-25T12:10:48.452Z,52.00
2023-04-25T12:11:48.544Z,53.56
2023-04-25T12:12:49.554Z,54.76
2023-04-25T12:13:48.676Z,53.02
2023-04-25T12:14:48.917Z,54.59
2023-04-25T12:15:48.842Z,56.63
2023-04-25T12:16:48.801Z,54.10
2023-04-25T12:17:48.897Z,55.99
2023-04-25T12:18:49.086Z,56.29
2023-04-25T12:19:49.432Z,54.75
2023-04-25T12:20:49.024Z,56.06
2023-04-25T12:22:48.477Z,54.64
2023-04-25T12:23:49.450Z,56.97
2023-04-25T12:24:50.039Z,58.01
2023-04-25T12:25:49.657Z,59.00
2023-04-25T12:26:49.450Z,57.36
2023-04-25T12:27:49.518Z,56.92
2023-04-25T12:28:49.896Z,57.16
2023-04-25T12:29:50.167Z,57.16
2023-04-25T12:30:49.751Z,57.54
2023-04-25T12:31:49.904Z,58.44
2023-04-25T12:32:49.976Z,56.86
2023-04-25T12:33:49.931Z,55.88
2023-04-25T12:34:50.433Z,55.09
2023-04-25T12:35:51.150Z,55.02
2023-04-25T12:36:50.066Z,54.85
2023-04-25T12:37:50.143Z,54.67
2023-04-25T12:38:50.436Z,54.61
2023-04-25T12:39:50.386Z,53.71
2023-04-25T12:40:50.443Z,53.52
2023-04-25T12:41:50.378Z,55.57
2023-04-25T12:42:50.918Z,59.70
2023-04-25T12:43:50.508Z,58.98
2023-04-25T12:44:50.700Z,58.82
2023-04-25T12:45:50.738Z,57.28
2023-04-25T12:46:50.994Z,59.36
2023-04-25T12:47:50.963Z,57.98
2023-04-25T12:48:51.263Z,59.06
2023-04-25T12:49:51.084Z,60.76
2023-04-25T12:50:51.468Z,59.95
2023-04-25T12:51:51.257Z,59.58
2023-04-25T12:52:51.483Z,56.13
2023-04-25T12:53:51.385Z,57.54
2023-04-25T12:54:51.431Z,56.22
2023-04-25T12:55:51.445Z,56.10
2023-04-25T12:56:51.487Z,55.71